sensor_id;sensor_type;location;lat;lon;timestamp;P1;durP1;ratioP1;P2;durP2;ratioP2
15858;SDS011;8029;52.202;7.308;2023-07-13T00:01:16;6.18;;;1.80;;
15858;SDS011;8029;52.202;7.308;2023-07-13T00:03:42;1.48;;;1.10;;
15858;SDS011;8029;52.202;7.308;2023-07-13T00:06:09;5.70;;;1.52;;
15858;SDS011;8029;52.202;7.308;2023-07-13T00:08:35;2.88;;;1.20;;
15858;SDS011;8029;52.202;7.308;2023-07-13T00:11:01;3.60;;;1.70;;
15858;SDS011;8029;52.202;7.308;2023-07-13T00:13:28;0.88;;;0.82;;
15858;SDS011;8029;52.202;7.308;2023-07-13T00:15:54;6.47;;;2.15;;
15858;SDS011;8029;52.202;7.308;2023-07-13T00:18:21;2.83;;;1.45;;
15858;SDS011;8029;52.202;7.308;2023-07-13T00:20:47;2.47;;;1.30;;
15858;SDS011;8029;52.202;7.308;2023-07-13T00:23:13;1.40;;;1.25;;
15858;SDS011;8029;52.202;7.308;2023-07-13T00:25:40;3.15;;;1.90;;
15858;SDS011;8029;52.202;7.308;2023-07-13T00:28:06;0.93;;;0.93;;
15858;SDS011;8029;52.202;7.308;2023-07-13T00:30:32;3.30;;;1.48;;
15858;SDS011;8029;52.202;7.308;2023-07-13T00:32:58;1.67;;;1.25;;
15858;SDS011;8029;52.202;7.308;2023-07-13T00:35:26;1.60;;;1.27;;
15858;SDS011;8029;52.202;7.308;2023-07-13T00:37:52;1.88;;;1.23;;
15858;SDS011;8029;52.202;7.308;2023-07-13T00:40:18;1.02;;;1.00;;
15858;SDS011;8029;52.202;7.308;2023-07-13T00:42:44;2.67;;;1.75;;
15858;SDS011;8029;52.202;7.308;2023-07-13T00:47:39;0.80;;;0.80;;
15858;SDS011;8029;52.202;7.308;2023-07-13T00:50:06;1.38;;;1.15;;
15858;SDS011;8029;52.202;7.308;2023-07-13T00:52:33;1.27;;;1.00;;
15858;SDS011;8029;52.202;7.308;2023-07-13T00:55:00;2.40;;;1.67;;
15858;SDS011;8029;52.202;7.308;2023-07-13T00:57:27;2.08;;;1.27;;
15858;SDS011;8029;52.202;7.308;2023-07-13T00:59:55;6.18;;;1.52;;
15858;SDS011;8029;52.202;7.308;2023-07-13T01:02:21;2.45;;;1.42;;
15858;SDS011;8029;52.202;7.308;2023-07-13T01:04:48;1.42;;;1.33;;
15858;SDS011;8029;52.202;7.308;2023-07-13T01:07:13;2.70;;;1.15;;
15858;SDS011;8029;52.202;7.308;2023-07-13T01:09:40;2.83;;;1.60;;
15858;SDS011;8029;52.202;7.308;2023-07-13T01:12:06;5.53;;;2.03;;
15858;SDS011;8029;52.202;7.308;2023-07-13T01:14:32;2.90;;;1.83;;
15858;SDS011;8029;52.202;7.308;2023-07-13T01:16:58;2.10;;;1.52;;
15858;SDS011;8029;52.202;7.308;2023-07-13T01:22:01;1.92;;;1.17;;
15858;SDS011;8029;52.202;7.308;2023-07-13T01:24:27;2.85;;;1.52;;
15858;SDS011;8029;52.202;7.308;2023-07-13T01:26:54;2.83;;;1.55;;
15858;SDS011;8029;52.202;7.308;2023-07-13T01:29:20;1.98;;;1.23;;
15858;SDS011;8029;52.202;7.308;2023-07-13T01:31:46;2.35;;;1.63;;
15858;SDS011;8029;52.202;7.308;2023-07-13T01:34:12;2.65;;;1.63;;
15858;SDS011;8029;52.202;7.308;2023-07-13T01:36:38;1.75;;;1.15;;
15858;SDS011;8029;52.202;7.308;2023-07-13T01:39:04;1.95;;;1.27;;
15858;SDS011;8029;52.202;7.308;2023-07-13T01:41:30;0.63;;;0.63;;
15858;SDS011;8029;52.202;7.308;2023-07-13T01:43:56;5.68;;;1.67;;
15858;SDS011;8029;52.202;7.308;2023-07-13T01:46:22;3.63;;;1.85;;
15858;SDS011;8029;52.202;7.308;2023-07-13T01:48:48;5.25;;;2.30;;
15858;SDS011;8029;52.202;7.308;2023-07-13T01:51:15;7.78;;;2.08;;
15858;SDS011;8029;52.202;7.308;2023-07-13T01:53:41;1.38;;;1.20;;
15858;SDS011;8029;52.202;7.308;2023-07-13T01:56:07;4.40;;;2.35;;
15858;SDS011;8029;52.202;7.308;2023-07-13T01:58:33;1.00;;;0.82;;
15858;SDS011;8029;52.202;7.308;2023-07-13T02:00:59;2.00;;;1.65;;
15858;SDS011;8029;52.202;7.308;2023-07-13T02:03:25;2.47;;;1.50;;
15858;SDS011;8029;52.202;7.308;2023-07-13T02:05:51;6.00;;;1.30;;
15858;SDS011;8029;52.202;7.308;2023-07-13T02:08:17;3.72;;;1.60;;
15858;SDS011;8029;52.202;7.308;2023-07-13T02:10:43;4.10;;;1.75;;
15858;SDS011;8029;52.202;7.308;2023-07-13T02:13:09;2.50;;;1.52;;
15858;SDS011;8029;52.202;7.308;2023-07-13T02:15:37;8.10;;;2.42;;
15858;SDS011;8029;52.202;7.308;2023-07-13T02:18:04;2.10;;;1.45;;
15858;SDS011;8029;52.202;7.308;2023-07-13T02:20:30;3.20;;;1.83;;
15858;SDS011;8029;52.202;7.308;2023-07-13T02:22:55;2.22;;;1.55;;
15858;SDS011;8029;52.202;7.308;2023-07-13T02:25:21;3.83;;;1.73;;
15858;SDS011;8029;52.202;7.308;2023-07-13T02:27:47;4.35;;;2.10;;
15858;SDS011;8029;52.202;7.308;2023-07-13T02:30:13;5.35;;;1.67;;
15858;SDS011;8029;52.202;7.308;2023-07-13T02:32:39;1.80;;;1.15;;
15858;SDS011;8029;52.202;7.308;2023-07-13T02:35:05;3.45;;;1.92;;
15858;SDS011;8029;52.202;7.308;2023-07-13T02:37:31;1.98;;;1.30;;
15858;SDS011;8029;52.202;7.308;2023-07-13T02:39:57;6.50;;;1.70;;
15858;SDS011;8029;52.202;7.308;2023-07-13T02:42:23;1.05;;;0.95;;
15858;SDS011;8029;52.202;7.308;2023-07-13T02:44:49;3.13;;;1.35;;
15858;SDS011;8029;52.202;7.308;2023-07-13T02:47:15;1.13;;;1.05;;
15858;SDS011;8029;52.202;7.308;2023-07-13T02:49:41;6.53;;;1.70;;
15858;SDS011;8029;52.202;7.308;2023-07-13T02:52:09;1.38;;;0.95;;
15858;SDS011;8029;52.202;7.308;2023-07-13T02:54:35;1.15;;;1.05;;
15858;SDS011;8029;52.202;7.308;2023-07-13T02:57:00;2.00;;;1.50;;
15858;SDS011;8029;52.202;7.308;2023-07-13T02:59:26;0.77;;;0.77;;
15858;SDS011;8029;52.202;7.308;2023-07-13T03:01:52;1.02;;;0.80;;
15858;SDS011;8029;52.202;7.308;2023-07-13T03:04:18;1.98;;;1.70;;
15858;SDS011;8029;52.202;7.308;2023-07-13T03:06:45;2.13;;;1.65;;
15858;SDS011;8029;52.202;7.308;2023-07-13T03:09:11;3.03;;;1.35;;
15858;SDS011;8029;52.202;7.308;2023-07-13T03:11:37;1.25;;;1.10;;
15858;SDS011;8029;52.202;7.308;2023-07-13T03:14:03;5.28;;;1.33;;
15858;SDS011;8029;52.202;7.308;2023-07-13T03:16:29;3.78;;;1.88;;
15858;SDS011;8029;52.202;7.308;2023-07-13T03:18:55;1.65;;;1.15;;
15858;SDS011;8029;52.202;7.308;2023-07-13T03:21:21;1.85;;;1.13;;
15858;SDS011;8029;52.202;7.308;2023-07-13T03:23:47;1.30;;;1.20;;
15858;SDS011;8029;52.202;7.308;2023-07-13T03:26:15;1.75;;;1.20;;
15858;SDS011;8029;52.202;7.308;2023-07-13T03:28:42;1.50;;;1.17;;
15858;SDS011;8029;52.202;7.308;2023-07-13T03:31:12;6.85;;;1.42;;
15858;SDS011;8029;52.202;7.308;2023-07-13T03:33:39;1.50;;;1.27;;
15858;SDS011;8029;52.202;7.308;2023-07-13T03:36:05;12.93;;;2.10;;
15858;SDS011;8029;52.202;7.308;2023-07-13T03:38:33;1.30;;;1.20;;
15858;SDS011;8029;52.202;7.308;2023-07-13T03:40:59;2.97;;;1.92;;
15858;SDS011;8029;52.202;7.308;2023-07-13T03:43:25;1.60;;;1.30;;
15858;SDS011;8029;52.202;7.308;2023-07-13T03:45:51;7.97;;;2.40;;
15858;SDS011;8029;52.202;7.308;2023-07-13T03:48:17;3.53;;;1.77;;
15858;SDS011;8029;52.202;7.308;2023-07-13T03:50:43;2.80;;;1.48;;
15858;SDS011;8029;52.202;7.308;2023-07-13T03:53:09;1.27;;;1.10;;
15858;SDS011;8029;52.202;7.308;2023-07-13T03:55:35;8.25;;;1.73;;
15858;SDS011;8029;52.202;7.308;2023-07-13T04:00:46;1.60;;;1.50;;
15858;SDS011;8029;52.202;7.308;2023-07-13T04:03:12;1.52;;;1.27;;
15858;SDS011;8029;52.202;7.308;2023-07-13T04:05:38;2.42;;;1.23;;
15858;SDS011;8029;52.202;7.308;2023-07-13T04:08:05;2.05;;;1.60;;
15858;SDS011;8029;52.202;7.308;2023-07-13T04:10:31;1.90;;;1.73;;
15858;SDS011;8029;52.202;7.308;2023-07-13T04:12:57;3.88;;;1.48;;
15858;SDS011;8029;52.202;7.308;2023-07-13T04:15:23;4.82;;;2.15;;
15858;SDS011;8029;52.202;7.308;2023-07-13T04:17:49;1.15;;;1.05;;
15858;SDS011;8029;52.202;7.308;2023-07-13T04:20:15;2.90;;;1.38;;
15858;SDS011;8029;52.202;7.308;2023-07-13T04:22:41;1.65;;;1.25;;
15858;SDS011;8029;52.202;7.308;2023-07-13T04:25:07;3.88;;;1.75;;
15858;SDS011;8029;52.202;7.308;2023-07-13T04:27:33;4.25;;;2.13;;
15858;SDS011;8029;52.202;7.308;2023-07-13T04:29:59;1.67;;;1.58;;
15858;SDS011;8029;52.202;7.308;2023-07-13T04:32:25;1.65;;;1.25;;
15858;SDS011;8029;52.202;7.308;2023-07-13T04:34:51;5.00;;;1.45;;
15858;SDS011;8029;52.202;7.308;2023-07-13T04:37:20;2.55;;;1.63;;
15858;SDS011;8029;52.202;7.308;2023-07-13T04:39:46;3.17;;;1.77;;
15858;SDS011;8029;52.202;7.308;2023-07-13T04:42:12;2.17;;;1.67;;
15858;SDS011;8029;52.202;7.308;2023-07-13T04:44:37;1.33;;;1.00;;
15858;SDS011;8029;52.202;7.308;2023-07-13T04:47:03;2.95;;;1.67;;
15858;SDS011;8029;52.202;7.308;2023-07-13T04:49:29;4.97;;;1.73;;
15858;SDS011;8029;52.202;7.308;2023-07-13T04:51:55;2.28;;;1.48;;
15858;SDS011;8029;52.202;7.308;2023-07-13T04:54:21;3.05;;;1.98;;
15858;SDS011;8029;52.202;7.308;2023-07-13T04:56:47;0.93;;;0.63;;
15858;SDS011;8029;52.202;7.308;2023-07-13T04:59:13;3.15;;;1.17;;
15858;SDS011;8029;52.202;7.308;2023-07-13T05:01:39;0.90;;;0.90;;
15858;SDS011;8029;52.202;7.308;2023-07-13T05:04:06;3.67;;;1.45;;
15858;SDS011;8029;52.202;7.308;2023-07-13T05:06:32;3.25;;;1.50;;
15858;SDS011;8029;52.202;7.308;2023-07-13T05:08:58;1.48;;;1.13;;
15858;SDS011;8029;52.202;7.308;2023-07-13T05:11:24;1.15;;;1.05;;
15858;SDS011;8029;52.202;7.308;2023-07-13T05:13:50;4.85;;;1.45;;
15858;SDS011;8029;52.202;7.308;2023-07-13T05:16:16;6.95;;;2.60;;
15858;SDS011;8029;52.202;7.308;2023-07-13T05:18:42;10.65;;;2.15;;
15858;SDS011;8029;52.202;7.308;2023-07-13T05:21:09;2.67;;;1.85;;
15858;SDS011;8029;52.202;7.308;2023-07-13T05:23:36;2.45;;;1.50;;
15858;SDS011;8029;52.202;7.308;2023-07-13T05:26:02;1.48;;;1.30;;
15858;SDS011;8029;52.202;7.308;2023-07-13T05:28:30;12.85;;;2.58;;
15858;SDS011;8029;52.202;7.308;2023-07-13T05:30:56;1.75;;;1.38;;
15858;SDS011;8029;52.202;7.308;2023-07-13T05:33:22;3.80;;;2.13;;
15858;SDS011;8029;52.202;7.308;2023-07-13T05:35:48;2.28;;;1.63;;
15858;SDS011;8029;52.202;7.308;2023-07-13T05:38:14;3.20;;;1.50;;
15858;SDS011;8029;52.202;7.308;2023-07-13T05:40:44;2.03;;;1.67;;
15858;SDS011;8029;52.202;7.308;2023-07-13T05:43:10;3.33;;;1.63;;
15858;SDS011;8029;52.202;7.308;2023-07-13T05:45:36;2.25;;;1.48;;
15858;SDS011;8029;52.202;7.308;2023-07-13T05:48:02;5.30;;;1.85;;
15858;SDS011;8029;52.202;7.308;2023-07-13T05:50:28;4.90;;;4.03;;
15858;SDS011;8029;52.202;7.308;2023-07-13T05:52:54;6.65;;;3.45;;
15858;SDS011;8029;52.202;7.308;2023-07-13T05:55:21;2.20;;;1.80;;
15858;SDS011;8029;52.202;7.308;2023-07-13T05:57:47;2.45;;;1.30;;
15858;SDS011;8029;52.202;7.308;2023-07-13T06:00:13;2.33;;;1.73;;
15858;SDS011;8029;52.202;7.308;2023-07-13T06:02:39;7.25;;;2.75;;
15858;SDS011;8029;52.202;7.308;2023-07-13T06:05:05;3.00;;;1.50;;
15858;SDS011;8029;52.202;7.308;2023-07-13T06:07:31;5.85;;;2.10;;
15858;SDS011;8029;52.202;7.308;2023-07-13T06:09:57;3.92;;;2.38;;
15858;SDS011;8029;52.202;7.308;2023-07-13T06:12:24;3.10;;;1.70;;
15858;SDS011;8029;52.202;7.308;2023-07-13T06:14:50;13.32;;;2.63;;
15858;SDS011;8029;52.202;7.308;2023-07-13T06:17:16;3.78;;;2.05;;
15858;SDS011;8029;52.202;7.308;2023-07-13T06:19:42;6.32;;;3.10;;
15858;SDS011;8029;52.202;7.308;2023-07-13T06:22:08;4.53;;;2.10;;
15858;SDS011;8029;52.202;7.308;2023-07-13T06:24:34;3.08;;;2.38;;
15858;SDS011;8029;52.202;7.308;2023-07-13T06:27:00;7.47;;;3.28;;
15858;SDS011;8029;52.202;7.308;2023-07-13T06:29:26;1.38;;;1.27;;
15858;SDS011;8029;52.202;7.308;2023-07-13T06:31:53;3.83;;;2.28;;
15858;SDS011;8029;52.202;7.308;2023-07-13T06:34:19;4.75;;;2.28;;
15858;SDS011;8029;52.202;7.308;2023-07-13T06:36:45;2.15;;;1.95;;
15858;SDS011;8029;52.202;7.308;2023-07-13T06:39:11;2.03;;;1.60;;
15858;SDS011;8029;52.202;7.308;2023-07-13T06:41:36;8.98;;;2.53;;
15858;SDS011;8029;52.202;7.308;2023-07-13T06:44:03;4.93;;;2.03;;
15858;SDS011;8029;52.202;7.308;2023-07-13T06:46:29;2.03;;;1.83;;
15858;SDS011;8029;52.202;7.308;2023-07-13T06:48:55;2.80;;;1.95;;
15858;SDS011;8029;52.202;7.308;2023-07-13T06:51:21;5.80;;;2.35;;
15858;SDS011;8029;52.202;7.308;2023-07-13T06:53:47;3.35;;;2.25;;
15858;SDS011;8029;52.202;7.308;2023-07-13T06:56:15;3.47;;;2.42;;
15858;SDS011;8029;52.202;7.308;2023-07-13T06:58:40;2.75;;;2.25;;
15858;SDS011;8029;52.202;7.308;2023-07-13T07:01:06;6.25;;;3.15;;
15858;SDS011;8029;52.202;7.308;2023-07-13T07:03:32;5.78;;;2.67;;
15858;SDS011;8029;52.202;7.308;2023-07-13T07:06:03;3.15;;;2.47;;
15858;SDS011;8029;52.202;7.308;2023-07-13T07:08:31;4.03;;;2.67;;
15858;SDS011;8029;52.202;7.308;2023-07-13T07:10:57;3.85;;;2.42;;
15858;SDS011;8029;52.202;7.308;2023-07-13T07:13:23;7.93;;;3.38;;
15858;SDS011;8029;52.202;7.308;2023-07-13T07:15:49;3.85;;;3.00;;
15858;SDS011;8029;52.202;7.308;2023-07-13T07:18:16;2.58;;;2.00;;
15858;SDS011;8029;52.202;7.308;2023-07-13T07:20:42;3.60;;;2.42;;
15858;SDS011;8029;52.202;7.308;2023-07-13T07:23:08;2.88;;;2.42;;
15858;SDS011;8029;52.202;7.308;2023-07-13T07:25:34;3.22;;;2.50;;
15858;SDS011;8029;52.202;7.308;2023-07-13T07:28:02;3.72;;;2.65;;
15858;SDS011;8029;52.202;7.308;2023-07-13T07:30:28;7.75;;;3.47;;
15858;SDS011;8029;52.202;7.308;2023-07-13T07:32:54;7.50;;;3.78;;
15858;SDS011;8029;52.202;7.308;2023-07-13T07:35:20;4.22;;;3.38;;
15858;SDS011;8029;52.202;7.308;2023-07-13T07:37:46;3.38;;;2.40;;
15858;SDS011;8029;52.202;7.308;2023-07-13T07:40:12;3.40;;;2.55;;
15858;SDS011;8029;52.202;7.308;2023-07-13T07:42:38;4.68;;;2.50;;
15858;SDS011;8029;52.202;7.308;2023-07-13T07:45:04;4.30;;;2.65;;
15858;SDS011;8029;52.202;7.308;2023-07-13T07:47:30;3.38;;;2.33;;
15858;SDS011;8029;52.202;7.308;2023-07-13T07:49:56;3.72;;;2.88;;
15858;SDS011;8029;52.202;7.308;2023-07-13T07:52:22;3.53;;;2.70;;
15858;SDS011;8029;52.202;7.308;2023-07-13T07:54:48;6.05;;;3.53;;
15858;SDS011;8029;52.202;7.308;2023-07-13T07:57:14;5.05;;;3.63;;
15858;SDS011;8029;52.202;7.308;2023-07-13T07:59:40;4.80;;;2.85;;
15858;SDS011;8029;52.202;7.308;2023-07-13T08:02:08;4.73;;;3.10;;
15858;SDS011;8029;52.202;7.308;2023-07-13T08:04:34;10.55;;;3.13;;
15858;SDS011;8029;52.202;7.308;2023-07-13T08:07:00;3.03;;;2.47;;
15858;SDS011;8029;52.202;7.308;2023-07-13T08:09:27;4.20;;;3.30;;
15858;SDS011;8029;52.202;7.308;2023-07-13T08:11:54;4.50;;;2.85;;
15858;SDS011;8029;52.202;7.308;2023-07-13T08:14:20;4.93;;;2.40;;
15858;SDS011;8029;52.202;7.308;2023-07-13T08:16:46;4.38;;;2.72;;
15858;SDS011;8029;52.202;7.308;2023-07-13T08:19:12;15.48;;;3.15;;
15858;SDS011;8029;52.202;7.308;2023-07-13T08:21:38;3.55;;;2.45;;
15858;SDS011;8029;52.202;7.308;2023-07-13T08:24:04;3.35;;;2.80;;
15858;SDS011;8029;52.202;7.308;2023-07-13T08:26:30;4.45;;;2.70;;
15858;SDS011;8029;52.202;7.308;2023-07-13T08:28:56;4.13;;;2.47;;
15858;SDS011;8029;52.202;7.308;2023-07-13T08:31:22;7.15;;;3.45;;
15858;SDS011;8029;52.202;7.308;2023-07-13T08:33:48;4.25;;;2.60;;
15858;SDS011;8029;52.202;7.308;2023-07-13T08:36:14;3.78;;;2.38;;
15858;SDS011;8029;52.202;7.308;2023-07-13T08:38:40;3.13;;;2.58;;
15858;SDS011;8029;52.202;7.308;2023-07-13T08:41:10;2.90;;;2.60;;
15858;SDS011;8029;52.202;7.308;2023-07-13T08:43:37;4.53;;;3.67;;
15858;SDS011;8029;52.202;7.308;2023-07-13T08:48:34;5.00;;;2.85;;
15858;SDS011;8029;52.202;7.308;2023-07-13T08:53:30;5.18;;;3.05;;
15858;SDS011;8029;52.202;7.308;2023-07-13T08:56:00;4.75;;;3.08;;
15858;SDS011;8029;52.202;7.308;2023-07-13T08:58:27;3.97;;;3.28;;
15858;SDS011;8029;52.202;7.308;2023-07-13T09:03:22;5.88;;;3.75;;
15858;SDS011;8029;52.202;7.308;2023-07-13T09:05:50;3.25;;;2.95;;
15858;SDS011;8029;52.202;7.308;2023-07-13T09:11:06;3.35;;;2.28;;
15858;SDS011;8029;52.202;7.308;2023-07-13T09:13:39;4.68;;;2.58;;
15858;SDS011;8029;52.202;7.308;2023-07-13T09:16:08;2.63;;;2.42;;
15858;SDS011;8029;52.202;7.308;2023-07-13T09:18:41;5.78;;;2.78;;
15858;SDS011;8029;52.202;7.308;2023-07-13T09:21:17;4.22;;;3.05;;
15858;SDS011;8029;52.202;7.308;2023-07-13T09:23:44;7.70;;;2.70;;
15858;SDS011;8029;52.202;7.308;2023-07-13T09:26:17;3.53;;;2.35;;
15858;SDS011;8029;52.202;7.308;2023-07-13T09:28:46;3.08;;;2.15;;
15858;SDS011;8029;52.202;7.308;2023-07-13T09:31:20;3.03;;;2.25;;
15858;SDS011;8029;52.202;7.308;2023-07-13T09:33:48;5.43;;;2.55;;
15858;SDS011;8029;52.202;7.308;2023-07-13T09:38:56;6.45;;;3.65;;
15858;SDS011;8029;52.202;7.308;2023-07-13T09:41:26;3.05;;;2.63;;
15858;SDS011;8029;52.202;7.308;2023-07-13T09:46:36;3.92;;;2.83;;
15858;SDS011;8029;52.202;7.308;2023-07-13T09:49:02;4.47;;;2.83;;
15858;SDS011;8029;52.202;7.308;2023-07-13T09:51:28;4.90;;;3.47;;
15858;SDS011;8029;52.202;7.308;2023-07-13T09:53:54;4.75;;;2.65;;
15858;SDS011;8029;52.202;7.308;2023-07-13T09:56:24;4.43;;;3.15;;
15858;SDS011;8029;52.202;7.308;2023-07-13T09:58:52;3.47;;;2.60;;
15858;SDS011;8029;52.202;7.308;2023-07-13T10:01:30;2.38;;;2.17;;
15858;SDS011;8029;52.202;7.308;2023-07-13T10:03:57;3.17;;;2.70;;
15858;SDS011;8029;52.202;7.308;2023-07-13T10:06:23;11.45;;;3.63;;
15858;SDS011;8029;52.202;7.308;2023-07-13T10:08:51;18.60;;;3.38;;
15858;SDS011;8029;52.202;7.308;2023-07-13T10:13:46;2.30;;;2.00;;
15858;SDS011;8029;52.202;7.308;2023-07-13T10:16:14;3.17;;;2.78;;
15858;SDS011;8029;52.202;7.308;2023-07-13T10:18:47;4.78;;;3.58;;
15858;SDS011;8029;52.202;7.308;2023-07-13T10:21:21;3.42;;;2.33;;
15858;SDS011;8029;52.202;7.308;2023-07-13T10:23:51;15.57;;;3.53;;
15858;SDS011;8029;52.202;7.308;2023-07-13T10:26:23;3.80;;;2.70;;
15858;SDS011;8029;52.202;7.308;2023-07-13T10:28:54;6.07;;;3.08;;
15858;SDS011;8029;52.202;7.308;2023-07-13T10:31:22;3.42;;;2.55;;
15858;SDS011;8029;52.202;7.308;2023-07-13T10:33:48;6.90;;;2.50;;
15858;SDS011;8029;52.202;7.308;2023-07-13T10:36:18;3.15;;;2.85;;
15858;SDS011;8029;52.202;7.308;2023-07-13T10:38:46;2.97;;;2.67;;
15858;SDS011;8029;52.202;7.308;2023-07-13T10:41:17;3.65;;;2.67;;
15858;SDS011;8029;52.202;7.308;2023-07-13T10:43:45;6.07;;;2.78;;
15858;SDS011;8029;52.202;7.308;2023-07-13T10:46:15;3.95;;;2.47;;
15858;SDS011;8029;52.202;7.308;2023-07-13T10:48:43;3.58;;;2.55;;
15858;SDS011;8029;52.202;7.308;2023-07-13T10:51:09;4.07;;;2.25;;
15858;SDS011;8029;52.202;7.308;2023-07-13T10:53:36;2.80;;;1.98;;
15858;SDS011;8029;52.202;7.308;2023-07-13T10:58:40;10.38;;;2.20;;
15858;SDS011;8029;52.202;7.308;2023-07-13T11:03:33;5.32;;;2.20;;
15858;SDS011;8029;52.202;7.308;2023-07-13T11:06:13;3.20;;;2.28;;
15858;SDS011;8029;52.202;7.308;2023-07-13T11:18:49;6.03;;;2.83;;
15858;SDS011;8029;52.202;7.308;2023-07-13T11:21:17;3.47;;;2.23;;
15858;SDS011;8029;52.202;7.308;2023-07-13T11:23:44;4.28;;;2.60;;
15858;SDS011;8029;52.202;7.308;2023-07-13T11:28:55;2.83;;;2.08;;
15858;SDS011;8029;52.202;7.308;2023-07-13T11:31:21;3.50;;;2.63;;
15858;SDS011;8029;52.202;7.308;2023-07-13T11:33:49;1.77;;;1.67;;
15858;SDS011;8029;52.202;7.308;2023-07-13T11:36:17;3.38;;;2.33;;
15858;SDS011;8029;52.202;7.308;2023-07-13T11:38:57;2.65;;;2.35;;
15858;SDS011;8029;52.202;7.308;2023-07-13T11:41:59;4.88;;;2.70;;
15858;SDS011;8029;52.202;7.308;2023-07-13T11:44:19;3.15;;;2.10;;
15858;SDS011;8029;52.202;7.308;2023-07-13T11:46:49;3.22;;;2.35;;
15858;SDS011;8029;52.202;7.308;2023-07-13T11:49:19;1.60;;;1.40;;
15858;SDS011;8029;52.202;7.308;2023-07-13T11:51:45;0.00;;;0.00;;
15858;SDS011;8029;52.202;7.308;2023-07-13T11:56:41;0.05;;;0.05;;
15858;SDS011;8029;52.202;7.308;2023-07-13T11:59:07;0.10;;;0.10;;
15858;SDS011;8029;52.202;7.308;2023-07-13T12:01:36;0.00;;;0.00;;
15858;SDS011;8029;52.202;7.308;2023-07-13T12:04:08;0.03;;;0.03;;
15858;SDS011;8029;52.202;7.308;2023-07-13T12:06:37;0.00;;;0.00;;
15858;SDS011;8029;52.202;7.308;2023-07-13T12:09:12;0.10;;;0.10;;
15858;SDS011;8029;52.202;7.308;2023-07-13T12:11:41;0.00;;;0.00;;
15858;SDS011;8029;52.202;7.308;2023-07-13T12:14:14;0.00;;;0.00;;
15858;SDS011;8029;52.202;7.308;2023-07-13T12:16:41;0.00;;;0.00;;
15858;SDS011;8029;52.202;7.308;2023-07-13T12:21:42;0.10;;;0.10;;
15858;SDS011;8029;52.202;7.308;2023-07-13T12:24:19;0.10;;;0.10;;
15858;SDS011;8029;52.202;7.308;2023-07-13T12:26:50;0.03;;;0.03;;
15858;SDS011;8029;52.202;7.308;2023-07-13T12:29:17;0.00;;;0.00;;
15858;SDS011;8029;52.202;7.308;2023-07-13T12:31:44;0.00;;;0.00;;
15858;SDS011;8029;52.202;7.308;2023-07-13T12:34:12;0.00;;;0.00;;
15858;SDS011;8029;52.202;7.308;2023-07-13T12:36:40;0.10;;;0.10;;
15858;SDS011;8029;52.202;7.308;2023-07-13T12:41:39;0.00;;;0.00;;
15858;SDS011;8029;52.202;7.308;2023-07-13T12:44:12;0.10;;;0.10;;
15858;SDS011;8029;52.202;7.308;2023-07-13T12:46:38;0.08;;;0.08;;
15858;SDS011;8029;52.202;7.308;2023-07-13T12:49:05;0.05;;;0.05;;
15858;SDS011;8029;52.202;7.308;2023-07-13T12:51:32;0.10;;;0.10;;
15858;SDS011;8029;52.202;7.308;2023-07-13T12:54:05;0.00;;;0.00;;
15858;SDS011;8029;52.202;7.308;2023-07-13T12:56:32;0.10;;;0.10;;
15858;SDS011;8029;52.202;7.308;2023-07-13T12:59:00;0.00;;;0.00;;
15858;SDS011;8029;52.202;7.308;2023-07-13T13:01:27;0.00;;;0.00;;
15858;SDS011;8029;52.202;7.308;2023-07-13T13:03:53;0.00;;;0.00;;
15858;SDS011;8029;52.202;7.308;2023-07-13T13:06:26;0.10;;;0.10;;
15858;SDS011;8029;52.202;7.308;2023-07-13T13:08:54;0.00;;;0.00;;
15858;SDS011;8029;52.202;7.308;2023-07-13T13:11:21;0.00;;;0.00;;
15858;SDS011;8029;52.202;7.308;2023-07-13T13:13:48;0.00;;;0.00;;
15858;SDS011;8029;52.202;7.308;2023-07-13T13:16:17;0.00;;;0.00;;
15858;SDS011;8029;52.202;7.308;2023-07-13T13:18:44;0.00;;;0.00;;
15858;SDS011;8029;52.202;7.308;2023-07-13T13:21:11;0.00;;;0.00;;
15858;SDS011;8029;52.202;7.308;2023-07-13T13:23:37;0.00;;;0.00;;
15858;SDS011;8029;52.202;7.308;2023-07-13T13:26:05;0.10;;;0.10;;
15858;SDS011;8029;52.202;7.308;2023-07-13T13:28:32;0.10;;;0.10;;
15858;SDS011;8029;52.202;7.308;2023-07-13T13:30:58;0.00;;;0.00;;
15858;SDS011;8029;52.202;7.308;2023-07-13T13:33:24;0.00;;;0.00;;
15858;SDS011;8029;52.202;7.308;2023-07-13T13:35:50;0.00;;;0.00;;
15858;SDS011;8029;52.202;7.308;2023-07-13T13:38:16;0.00;;;0.00;;
15858;SDS011;8029;52.202;7.308;2023-07-13T13:40:43;0.00;;;0.00;;
15858;SDS011;8029;52.202;7.308;2023-07-13T13:43:26;0.10;;;0.10;;
15858;SDS011;8029;52.202;7.308;2023-07-13T13:45:55;0.00;;;0.00;;
15858;SDS011;8029;52.202;7.308;2023-07-13T13:48:31;0.03;;;0.03;;
15858;SDS011;8029;52.202;7.308;2023-07-13T13:50:58;0.00;;;0.00;;
15858;SDS011;8029;52.202;7.308;2023-07-13T13:53:25;0.10;;;0.10;;
15858;SDS011;8029;52.202;7.308;2023-07-13T13:55:51;0.10;;;0.10;;
15858;SDS011;8029;52.202;7.308;2023-07-13T13:58:17;0.00;;;0.00;;
15858;SDS011;8029;52.202;7.308;2023-07-13T14:00:43;0.10;;;0.10;;
15858;SDS011;8029;52.202;7.308;2023-07-13T14:03:19;0.05;;;0.05;;
15858;SDS011;8029;52.202;7.308;2023-07-13T14:05:46;0.10;;;0.10;;
15858;SDS011;8029;52.202;7.308;2023-07-13T14:08:14;0.00;;;0.00;;
15858;SDS011;8029;52.202;7.308;2023-07-13T14:10:40;0.08;;;0.08;;
15858;SDS011;8029;52.202;7.308;2023-07-13T14:13:07;0.00;;;0.00;;
15858;SDS011;8029;52.202;7.308;2023-07-13T14:15:42;0.00;;;0.00;;
15858;SDS011;8029;52.202;7.308;2023-07-13T14:18:08;0.00;;;0.00;;
15858;SDS011;8029;52.202;7.308;2023-07-13T14:20:34;2.63;;;1.60;;
15858;SDS011;8029;52.202;7.308;2023-07-13T14:23:00;0.90;;;0.90;;
15858;SDS011;8029;52.202;7.308;2023-07-13T14:25:26;1.23;;;0.98;;
15858;SDS011;8029;52.202;7.308;2023-07-13T14:27:53;1.38;;;1.27;;
15858;SDS011;8029;52.202;7.308;2023-07-13T14:30:22;1.63;;;1.52;;
15858;SDS011;8029;52.202;7.308;2023-07-13T14:32:48;1.80;;;1.15;;
15858;SDS011;8029;52.202;7.308;2023-07-13T14:35:14;1.85;;;1.58;;
15858;SDS011;8029;52.202;7.308;2023-07-13T14:37:41;1.80;;;1.50;;
15858;SDS011;8029;52.202;7.308;2023-07-13T14:42:39;2.83;;;2.40;;
15858;SDS011;8029;52.202;7.308;2023-07-13T14:45:05;3.00;;;2.35;;
15858;SDS011;8029;52.202;7.308;2023-07-13T14:47:31;2.40;;;2.20;;
15858;SDS011;8029;52.202;7.308;2023-07-13T14:49:57;2.65;;;2.35;;
15858;SDS011;8029;52.202;7.308;2023-07-13T14:52:23;2.17;;;2.00;;
15858;SDS011;8029;52.202;7.308;2023-07-13T14:54:51;2.50;;;2.30;;
15858;SDS011;8029;52.202;7.308;2023-07-13T14:57:17;3.10;;;2.35;;
15858;SDS011;8029;52.202;7.308;2023-07-13T14:59:43;2.83;;;2.38;;
15858;SDS011;8029;52.202;7.308;2023-07-13T15:02:33;2.67;;;2.38;;
15858;SDS011;8029;52.202;7.308;2023-07-13T15:04:56;1.80;;;1.70;;
15858;SDS011;8029;52.202;7.308;2023-07-13T15:07:22;1.58;;;1.48;;
15858;SDS011;8029;52.202;7.308;2023-07-13T15:09:48;1.50;;;1.40;;
15858;SDS011;8029;52.202;7.308;2023-07-13T15:12:15;1.45;;;1.25;;
15858;SDS011;8029;52.202;7.308;2023-07-13T15:14:41;1.27;;;1.20;;
15858;SDS011;8029;52.202;7.308;2023-07-13T15:17:31;2.40;;;1.75;;
15858;SDS011;8029;52.202;7.308;2023-07-13T15:19:54;2.03;;;1.50;;
15858;SDS011;8029;52.202;7.308;2023-07-13T15:22:21;1.20;;;1.10;;
15858;SDS011;8029;52.202;7.308;2023-07-13T15:24:47;1.48;;;1.38;;
15858;SDS011;8029;52.202;7.308;2023-07-13T15:27:13;3.10;;;1.60;;
15858;SDS011;8029;52.202;7.308;2023-07-13T15:29:39;5.40;;;1.73;;
15858;SDS011;8029;52.202;7.308;2023-07-13T15:32:11;1.05;;;0.98;;
15858;SDS011;8029;52.202;7.308;2023-07-13T15:34:37;0.70;;;0.68;;
15858;SDS011;8029;52.202;7.308;2023-07-13T15:37:04;1.45;;;1.35;;
15858;SDS011;8029;52.202;7.308;2023-07-13T15:39:30;0.95;;;0.80;;
15858;SDS011;8029;52.202;7.308;2023-07-13T15:41:56;2.95;;;2.75;;
15858;SDS011;8029;52.202;7.308;2023-07-13T15:44:23;1.00;;;1.00;;
15858;SDS011;8029;52.202;7.308;2023-07-13T15:46:51;1.17;;;0.95;;
15858;SDS011;8029;52.202;7.308;2023-07-13T15:49:17;0.80;;;0.80;;
15858;SDS011;8029;52.202;7.308;2023-07-13T15:51:43;1.40;;;1.00;;
15858;SDS011;8029;52.202;7.308;2023-07-13T15:54:10;1.55;;;1.23;;